createdAt,value
2023-05-09T00:00:09.462Z,72.30
2023-05-09T00:02:42.331Z,72.85
2023-05-09T00:05:14.225Z,71.84
2023-05-09T00:07:45.962Z,71.60
2023-05-09T00:10:17.610Z,71.50
2023-05-09T00:12:49.297Z,72.86
2023-05-09T00:15:21.033Z,71.23
2023-05-09T00:17:52.719Z,69.83
2023-05-09T00:20:24.314Z,74.05
2023-05-09T00:22:55.928Z,75.87
2023-05-09T00:25:27.536Z,72.31
2023-05-09T00:27:59.239Z,71.80
2023-05-09T00:30:31.456Z,72.05
2023-05-09T00:33:03.111Z,71.81
2023-05-09T00:35:34.935Z,72.61
2023-05-09T00:38:06.493Z,72.94
2023-05-09T00:40:38.394Z,72.95
2023-05-09T00:43:10.447Z,71.29
2023-05-09T00:45:42.922Z,72.30
2023-05-09T00:48:15.744Z,71.57
2023-05-09T00:50:47.586Z,72.87
2023-05-09T00:53:20.275Z,73.46
2023-05-09T00:55:54.995Z,73.88
2023-05-09T00:58:27.291Z,75.02
2023-05-09T01:00:59.348Z,75.27
2023-05-09T01:03:32.174Z,75.22
2023-05-09T01:06:16.999Z,75.32
2023-05-09T01:09:03.525Z,74.28
2023-05-09T01:12:19.505Z,75.55
2023-05-09T01:15:06.052Z,75.81
2023-05-09T01:17:58.377Z,75.26
2023-05-09T01:20:41.618Z,75.19
2023-05-09T01:23:45.104Z,75.82
2023-05-09T01:26:36.723Z,76.97
2023-05-09T01:29:34.178Z,76.22
2023-05-09T01:32:13.919Z,76.18
2023-05-09T01:34:51.829Z,77.79
2023-05-09T01:37:37.990Z,77.96
2023-05-09T01:40:18.690Z,76.95
2023-05-09T01:43:08.301Z,76.25
2023-05-09T01:45:43.019Z,74.77
2023-05-09T01:48:16.632Z,72.36
2023-05-09T01:50:49.689Z,73.86
2023-05-09T01:53:25.674Z,72.78
2023-05-09T01:56:00.038Z,72.54
2023-05-09T01:58:34.210Z,71.65
2023-05-09T02:01:07.632Z,71.24
2023-05-09T02:03:45.054Z,71.85
2023-05-09T02:06:20.805Z,72.76
2023-05-09T02:08:52.588Z,72.39
2023-05-09T02:11:24.518Z,71.18
2023-05-09T02:13:56.681Z,71.16
2023-05-09T02:16:28.883Z,72.39
2023-05-09T02:19:01.400Z,74.10
2023-05-09T02:21:33.390Z,73.41
2023-05-09T02:24:05.627Z,73.83
2023-05-09T02:26:39.632Z,73.97
2023-05-09T02:29:12.396Z,72.24
2023-05-09T02:31:48.654Z,73.56
2023-05-09T02:34:21.128Z,74.08
2023-05-09T02:36:52.988Z,73.56
2023-05-09T02:39:24.873Z,75.03
2023-05-09T02:41:56.403Z,73.81
2023-05-09T02:44:27.997Z,71.74
2023-05-09T02:46:59.674Z,70.50
2023-05-09T02:49:32.734Z,73.34
2023-05-09T02:52:05.742Z,75.43
2023-05-09T02:54:38.222Z,72.36
2023-05-09T02:57:09.814Z,71.56
2023-05-09T02:59:41.450Z,69.50
2023-05-09T03:02:13.174Z,68.91
2023-05-09T03:04:45.138Z,68.63
2023-05-09T03:07:17.073Z,71.50
2023-05-09T03:09:48.607Z,71.41
2023-05-09T03:12:20.447Z,71.00
2023-05-09T03:14:52.191Z,71.17
2023-05-09T03:17:23.862Z,69.38
2023-05-09T03:19:55.551Z,69.41
2023-05-09T03:22:27.594Z,67.45
2023-05-09T03:25:05.277Z,66.00
2023-05-09T03:27:37.019Z,65.08
2023-05-09T03:30:12.631Z,65.22
2023-05-09T03:32:45.897Z,64.82
2023-05-09T03:35:17.707Z,63.89
2023-05-09T03:37:49.323Z,63.84
2023-05-09T03:40:21.040Z,64.29
2023-05-09T03:42:59.252Z,65.33
2023-05-09T03:45:31.151Z,65.20
2023-05-09T03:48:03.309Z,64.99
2023-05-09T03:50:37.976Z,67.92
2023-05-09T03:53:10.005Z,69.56
2023-05-09T03:55:42.972Z,68.17
2023-05-09T03:58:17.443Z,67.84
2023-05-09T04:00:50.700Z,67.23
2023-05-09T04:03:27.256Z,66.06
2023-05-09T04:06:00.341Z,65.59
2023-05-09T04:08:37.426Z,69.93
2023-05-09T04:11:10.806Z,69.50
2023-05-09T04:13:46.486Z,69.74
2023-05-09T04:16:37.354Z,67.44
2023-05-09T04:19:09.302Z,67.74
2023-05-09T04:21:41.081Z,66.43
2023-05-09T04:24:13.636Z,67.29
2023-05-09T04:26:51.006Z,69.68
2023-05-09T04:29:26.426Z,66.18
2023-05-09T04:32:02.460Z,65.38
2023-05-09T04:34:34.466Z,64.25
2023-05-09T04:37:12.696Z,64.26
2023-05-09T04:39:44.651Z,63.14
2023-05-09T04:42:23.344Z,63.82
2023-05-09T04:44:54.980Z,63.78
2023-05-09T04:47:27.423Z,62.52
2023-05-09T04:49:59.095Z,62.01
2023-05-09T04:52:31.463Z,62.95
2023-05-09T04:55:03.181Z,62.04
2023-05-09T04:57:40.281Z,61.65
2023-05-09T05:00:12.575Z,61.68
2023-05-09T05:02:45.317Z,60.89
2023-05-09T05:05:17.296Z,61.28
2023-05-09T05:07:48.853Z,61.50
2023-05-09T05:10:25.249Z,60.87
2023-05-09T05:13:05.020Z,60.36
2023-05-09T05:15:36.722Z,60.68
2023-05-09T05:18:09.300Z,60.13
2023-05-09T05:20:41.592Z,59.83
2023-05-09T05:23:13.506Z,59.61
2023-05-09T05:25:48.642Z,59.84
2023-05-09T05:28:20.705Z,59.32
2023-05-09T05:30:52.508Z,58.68
2023-05-09T05:33:24.459Z,59.70
2023-05-09T05:35:56.774Z,59.75
2023-05-09T05:38:28.779Z,58.46
2023-05-09T05:41:02.232Z,58.75
2023-05-09T05:43:35.271Z,59.88
2023-05-09T05:46:07.521Z,58.96
2023-05-09T05:48:40.042Z,55.02
2023-05-09T05:51:12.013Z,54.69
2023-05-09T05:53:45.811Z,56.75
2023-05-09T05:56:17.894Z,55.20
2023-05-09T05:58:49.681Z,53.58
2023-05-09T06:01:22.788Z,51.47
2023-05-09T06:03:54.689Z,52.66
2023-05-09T06:06:28.790Z,53.92
2023-05-09T06:09:00.787Z,52.44
2023-05-09T06:11:32.466Z,49.34
2023-05-09T06:14:04.531Z,49.11
2023-05-09T06:16:36.708Z,49.76
2023-05-09T06:19:08.819Z,50.26
2023-05-09T06:21:40.869Z,48.95
2023-05-09T06:24:31.806Z,48.53
2023-05-09T06:27:07.324Z,46.22
2023-05-09T06:29:39.452Z,45.99
2023-05-09T06:32:11.420Z,44.39
2023-05-09T06:34:43.140Z,44.03
2023-05-09T06:37:15.136Z,43.27
2023-05-09T06:39:47.390Z,41.74
2023-05-09T06:42:19.587Z,43.65
2023-05-09T06:44:52.152Z,42.60
2023-05-09T06:47:24.011Z,40.86
2023-05-09T06:49:55.839Z,40.02
2023-05-09T06:52:27.790Z,41.58
2023-05-09T06:55:00.395Z,39.56
2023-05-09T06:57:32.233Z,36.91
2023-05-09T07:00:04.578Z,41.59
2023-05-09T07:02:36.279Z,40.11
2023-05-09T07:05:09.654Z,38.12
2023-05-09T07:07:41.318Z,37.44
2023-05-09T07:10:13.216Z,39.15
2023-05-09T07:12:45.023Z,41.17
2023-05-09T07:15:28.644Z,43.45
2023-05-09T07:18:05.200Z,43.33
2023-05-09T07:20:36.940Z,45.04
2023-05-09T07:23:08.602Z,49.60
2023-05-09T07:25:40.475Z,53.03
2023-05-09T07:28:12.047Z,52.61
2023-05-09T07:31:11.849Z,51.57
2023-05-09T07:33:50.170Z,51.27
2023-05-09T07:36:21.976Z,52.00
2023-05-09T07:38:53.586Z,51.05
2023-05-09T07:41:25.192Z,52.39
2023-05-09T07:43:56.754Z,50.30
2023-05-09T07:46:28.448Z,49.47
2023-05-09T07:49:00.089Z,50.47
2023-05-09T07:51:31.755Z,51.54
2023-05-09T07:54:03.633Z,51.12
2023-05-09T07:56:35.466Z,50.46
2023-05-09T07:59:07.150Z,52.29
2023-05-09T08:01:38.885Z,53.19
2023-05-09T08:04:10.776Z,53.79
2023-05-09T08:06:42.590Z,54.97
2023-05-09T08:09:14.294Z,56.39
2023-05-09T08:11:45.964Z,54.53
2023-05-09T08:14:17.647Z,55.28
2023-05-09T08:16:49.450Z,53.73
2023-05-09T08:19:21.108Z,52.48
2023-05-09T08:21:53.210Z,52.82
2023-05-09T08:24:25.076Z,52.60
2023-05-09T08:26:57.260Z,54.08
2023-05-09T08:29:29.620Z,53.14
2023-05-09T08:32:02.517Z,49.77
2023-05-09T08:34:35.564Z,51.47
2023-05-09T08:37:07.941Z,50.84
2023-05-09T08:39:40.204Z,51.10
2023-05-09T08:42:13.353Z,51.87
2023-05-09T08:44:45.141Z,54.44
2023-05-09T08:47:18.089Z,54.35
2023-05-09T08:49:52.240Z,53.51
2023-05-09T08:52:24.742Z,53.28
2023-05-09T08:54:57.102Z,54.69
2023-05-09T08:57:29.868Z,54.23
2023-05-09T09:00:03.707Z,54.97
2023-05-09T09:02:35.553Z,54.59
2023-05-09T09:07:41.459Z,54.32
2023-05-09T09:10:13.832Z,55.03
2023-05-09T09:12:46.719Z,56.73
2023-05-09T09:15:22.571Z,54.49
2023-05-09T09:17:57.861Z,53.08
2023-05-09T09:20:33.738Z,53.14
2023-05-09T09:23:09.380Z,54.15
2023-05-09T09:25:41.008Z,52.74
2023-05-09T09:28:12.714Z,52.18
2023-05-09T09:30:48.365Z,53.37
2023-05-09T09:33:21.794Z,51.90
2023-05-09T09:35:55.263Z,51.75
2023-05-09T09:38:26.917Z,51.20
2023-05-09T09:40:59.261Z,51.33
2023-05-09T09:43:32.038Z,53.64
2023-05-09T09:46:05.391Z,52.64
2023-05-09T09:48:36.997Z,52.43
2023-05-09T09:51:10.373Z,51.25
2023-05-09T09:53:43.384Z,51.66
2023-05-09T09:56:15.127Z,50.32
2023-05-09T09:58:46.762Z,51.49
2023-05-09T10:01:18.406Z,53.33
2023-05-09T10:03:50.136Z,52.05
2023-05-09T10:06:21.867Z,51.11
2023-05-09T10:08:53.461Z,50.23
2023-05-09T10:11:25.117Z,50.66
2023-05-09T10:13:57.004Z,49.51
2023-05-09T10:16:40.181Z,50.18
2023-05-09T10:19:19.184Z,49.35
2023-05-09T10:21:54.497Z,47.68
2023-05-09T10:24:56.865Z,50.72
2023-05-09T10:27:35.328Z,48.52
2023-05-09T10:30:12.823Z,48.81
2023-05-09T10:33:23.053Z,49.93
2023-05-09T10:35:58.211Z,51.35
2023-05-09T10:38:30.908Z,50.47
2023-05-09T10:41:03.774Z,50.56
2023-05-09T10:43:36.830Z,51.36
2023-05-09T10:46:09.517Z,53.07
2023-05-09T10:48:43.886Z,53.78
2023-05-09T10:51:17.332Z,52.11
2023-05-09T10:53:50.942Z,52.32
2023-05-09T10:56:26.872Z,51.31
2023-05-09T10:59:00.318Z,52.92
2023-05-09T11:01:38.180Z,55.88
2023-05-09T11:04:17.138Z,56.32
2023-05-09T11:06:52.751Z,56.27
2023-05-09T11:09:36.391Z,57.38
2023-05-09T11:12:14.154Z,56.03
2023-05-09T11:14:47.150Z,56.61
2023-05-09T11:17:22.362Z,56.95
2023-05-09T11:20:04.356Z,57.05
2023-05-09T11:22:40.671Z,56.59
2023-05-09T11:25:14.841Z,56.23
2023-05-09T11:27:49.578Z,55.41
2023-05-09T11:30:23.248Z,55.12
2023-05-09T11:32:55.978Z,55.61
2023-05-09T11:35:28.431Z,55.51
2023-05-09T11:38:02.552Z,56.62
2023-05-09T11:40:35.305Z,54.97
2023-05-09T11:43:07.701Z,55.85
2023-05-09T11:45:41.165Z,54.46
2023-05-09T11:48:12.711Z,54.73
2023-05-09T11:50:47.319Z,54.30
2023-05-09T11:53:18.910Z,53.38
2023-05-09T11:55:50.576Z,54.80
2023-05-09T11:58:22.235Z,54.14
2023-05-09T12:00:53.937Z,54.29
2023-05-09T12:03:26.030Z,55.14
2023-05-09T12:05:57.840Z,55.66
2023-05-09T12:08:29.469Z,55.69
2023-05-09T12:11:10.539Z,55.14
2023-05-09T12:13:49.572Z,53.85
2023-05-09T12:16:21.326Z,52.96
2023-05-09T12:18:53.460Z,52.62
2023-05-09T12:21:25.053Z,53.89
2023-05-09T12:23:56.648Z,53.05
2023-05-09T12:26:28.778Z,54.91
2023-05-09T12:29:00.817Z,55.67
2023-05-09T12:31:32.941Z,55.45
2023-05-09T12:34:04.842Z,59.22
2023-05-09T12:36:36.988Z,61.41
2023-05-09T12:39:10.211Z,60.72
2023-05-09T12:41:57.335Z,60.70
2023-05-09T12:44:33.055Z,60.61
2023-05-09T12:47:05.184Z,63.05
2023-05-09T12:49:37.083Z,60.33
2023-05-09T12:52:18.931Z,58.61
2023-05-09T12:54:53.050Z,59.67
2023-05-09T12:57:25.908Z,61.08
2023-05-09T12:59:58.692Z,61.98
2023-05-09T13:02:38.544Z,63.08
2023-05-09T13:05:12.870Z,60.38
2023-05-09T13:07:47.328Z,62.27
2023-05-09T13:10:20.414Z,62.75
2023-05-09T13:12:52.519Z,63.28
2023-05-09T13:15:24.397Z,63.86
2023-05-09T13:17:56.269Z,62.01
2023-05-09T13:20:28.100Z,61.10
2023-05-09T13:23:00.731Z,60.03
2023-05-09T13:25:32.467Z,61.58
2023-05-09T13:28:05.402Z,61.46
2023-05-09T13:30:38.456Z,63.31
2023-05-09T13:33:24.417Z,64.17
2023-05-09T13:35:56.889Z,63.74
2023-05-09T13:38:28.894Z,64.45
2023-05-09T13:41:02.422Z,67.89
2023-05-09T13:43:34.459Z,67.48
2023-05-09T13:46:06.787Z,69.76
2023-05-09T13:48:38.650Z,68.01
2023-05-09T13:51:10.734Z,68.58
2023-05-09T13:53:43.561Z,70.05
2023-05-09T13:56:15.674Z,66.57
2023-05-09T13:58:47.333Z,66.79
2023-05-09T14:01:18.950Z,68.75
2023-05-09T14:03:50.574Z,70.62
2023-05-09T14:06:22.283Z,70.43
2023-05-09T14:08:53.893Z,68.14
2023-05-09T14:11:25.900Z,70.59
2023-05-09T14:13:57.439Z,69.89
2023-05-09T14:16:29.171Z,69.49
2023-05-09T14:19:00.981Z,68.55
2023-05-09T14:21:32.564Z,69.59
2023-05-09T14:24:04.517Z,67.99
2023-05-09T14:26:36.572Z,68.40
2023-05-09T14:29:08.214Z,68.37
2023-05-09T14:31:39.849Z,69.11
2023-05-09T14:34:11.459Z,68.81
2023-05-09T14:36:43.103Z,70.65
2023-05-09T14:39:14.687Z,69.73
2023-05-09T14:41:46.357Z,70.66
2023-05-09T14:44:17.978Z,71.59
2023-05-09T14:46:49.732Z,70.68
2023-05-09T14:49:21.503Z,71.83
2023-05-09T14:51:56.322Z,71.95
2023-05-09T14:54:28.076Z,72.88
2023-05-09T14:56:59.780Z,73.45
2023-05-09T14:59:31.762Z,73.46
2023-05-09T15:02:03.752Z,75.03
2023-05-09T15:04:35.836Z,76.28
2023-05-09T15:07:07.829Z,76.20
2023-05-09T15:09:39.605Z,75.87
2023-05-09T15:12:11.715Z,76.27
2023-05-09T15:14:43.574Z,76.65
2023-05-09T15:17:15.377Z,77.26
2023-05-09T15:19:47.086Z,76.88
2023-05-09T15:22:19.001Z,76.23
2023-05-09T15:24:50.842Z,77.48
2023-05-09T15:27:22.972Z,77.85
2023-05-09T15:29:54.972Z,75.69
2023-05-09T15:32:30.403Z,77.65
2023-05-09T15:35:02.852Z,77.19
2023-05-09T15:37:35.777Z,75.55
2023-05-09T15:40:09.261Z,76.21
2023-05-09T15:42:41.257Z,75.80
2023-05-09T15:45:13.214Z,76.98
2023-05-09T15:47:45.127Z,79.44
2023-05-09T15:50:17.443Z,78.43
2023-05-09T15:52:49.443Z,78.59
2023-05-09T15:55:22.221Z,79.79
2023-05-09T15:57:54.198Z,80.66
2023-05-09T16:00:27.686Z,81.29
2023-05-09T16:02:59.921Z,80.98
2023-05-09T16:05:32.629Z,80.09
2023-05-09T16:08:04.698Z,81.64
2023-05-09T16:10:36.839Z,81.10
2023-05-09T16:13:09.045Z,81.03
2023-05-09T16:15:40.863Z,81.48
2023-05-09T16:18:12.502Z,80.37
2023-05-09T16:20:44.262Z,80.78
2023-05-09T16:23:15.825Z,82.47
2023-05-09T16:25:47.457Z,83.84
2023-05-09T16:28:18.953Z,83.65
2023-05-09T16:30:50.889Z,82.63
2023-05-09T16:33:22.509Z,82.26
2023-05-09T16:35:54.068Z,81.97
2023-05-09T16:38:26.121Z,82.42
2023-05-09T16:40:57.698Z,84.11
2023-05-09T16:43:29.303Z,85.35
2023-05-09T16:46:00.890Z,85.65
2023-05-09T16:48:32.468Z,85.24
2023-05-09T16:51:04.151Z,84.66
2023-05-09T16:53:35.715Z,85.28
2023-05-09T16:56:07.329Z,86.93
2023-05-09T16:58:39.075Z,86.17
2023-05-09T17:01:10.788Z,85.89
2023-05-09T17:03:42.395Z,87.37
2023-05-09T17:06:14.024Z,87.62
2023-05-09T17:08:46.045Z,86.74
2023-05-09T17:11:17.583Z,85.29
2023-05-09T17:13:49.161Z,87.24
2023-05-09T17:16:20.936Z,85.78
2023-05-09T17:18:52.800Z,87.65
2023-05-09T17:21:24.560Z,88.06
2023-05-09T17:23:56.365Z,88.07
2023-05-09T17:26:28.088Z,87.84
2023-05-09T17:28:59.947Z,87.28
2023-05-09T17:31:31.592Z,87.33
2023-05-09T17:34:03.481Z,88.00
2023-05-09T17:36:35.572Z,88.67
2023-05-09T17:39:07.622Z,88.80
2023-05-09T17:41:39.536Z,88.41
2023-05-09T17:44:12.408Z,88.71
2023-05-09T17:46:45.219Z,88.72
2023-05-09T17:49:17.419Z,88.61
2023-05-09T17:51:49.483Z,89.15
2023-05-09T17:54:21.224Z,88.97
2023-05-09T17:56:53.517Z,89.11
2023-05-09T17:59:25.792Z,88.24
2023-05-09T18:01:59.517Z,87.11
2023-05-09T18:04:31.462Z,87.49
2023-05-09T18:07:03.774Z,87.27
2023-05-09T18:09:35.645Z,87.40
2023-05-09T18:12:08.302Z,87.42
2023-05-09T18:14:41.316Z,87.42
2023-05-09T18:17:13.625Z,87.32
2023-05-09T18:19:45.645Z,86.87
2023-05-09T18:22:17.533Z,86.83
2023-05-09T18:24:49.631Z,86.65
2023-05-09T18:27:22.745Z,86.71
2023-05-09T18:29:54.828Z,87.53
2023-05-09T18:32:26.743Z,86.34
2023-05-09T18:34:58.391Z,86.59
2023-05-09T18:37:29.958Z,86.75
2023-05-09T18:40:01.632Z,87.27
2023-05-09T18:42:33.306Z,86.95
2023-05-09T18:45:05.333Z,86.24
2023-05-09T18:47:38.046Z,87.33
2023-05-09T18:50:10.215Z,87.24
2023-05-09T18:52:41.823Z,86.17
2023-05-09T18:55:13.475Z,88.33
2023-05-09T18:57:45.601Z,87.63
2023-05-09T19:00:17.546Z,87.87
2023-05-09T19:02:49.289Z,89.18
2023-05-09T19:05:20.935Z,89.17
2023-05-09T19:07:54.108Z,88.69
2023-05-09T19:10:26.025Z,86.33
2023-05-09T19:12:57.831Z,85.79
2023-05-09T19:15:29.596Z,83.77
2023-05-09T19:18:01.874Z,81.48
2023-05-09T19:20:33.710Z,81.27
2023-05-09T19:23:05.474Z,80.92
2023-05-09T19:25:37.308Z,79.51
2023-05-09T19:28:09.147Z,78.89
2023-05-09T19:30:41.675Z,78.20
2023-05-09T19:33:13.590Z,82.30
2023-05-09T19:35:45.369Z,83.50
2023-05-09T19:38:17.174Z,82.33
2023-05-09T19:40:49.053Z,83.42
2023-05-09T19:43:21.018Z,84.20
2023-05-09T19:45:52.747Z,83.07
2023-05-09T19:48:24.709Z,81.74
2023-05-09T19:50:57.931Z,81.07
2023-05-09T19:53:29.902Z,82.50
2023-05-09T19:56:03.588Z,84.77
2023-05-09T19:58:35.572Z,85.69
2023-05-09T20:01:07.474Z,85.78
2023-05-09T20:03:40.104Z,86.03
2023-05-09T20:06:16.028Z,86.66
2023-05-09T20:08:48.018Z,86.97
2023-05-09T20:11:20.587Z,85.83
2023-05-09T20:13:52.331Z,86.13
2023-05-09T20:16:24.919Z,87.19
2023-05-09T20:18:56.780Z,84.92
2023-05-09T20:21:30.177Z,83.98
2023-05-09T20:24:03.095Z,82.79
2023-05-09T20:26:34.938Z,82.64
2023-05-09T20:29:07.755Z,83.74
2023-05-09T20:31:40.229Z,85.55
2023-05-09T20:34:12.244Z,85.81
2023-05-09T20:36:48.616Z,84.99
2023-05-09T20:39:21.110Z,85.83
2023-05-09T20:41:53.561Z,85.57
2023-05-09T20:44:25.573Z,85.44
2023-05-09T20:46:57.879Z,83.07
2023-05-09T20:49:30.192Z,84.65
2023-05-09T20:52:02.145Z,83.55
2023-05-09T20:54:33.702Z,82.10
2023-05-09T20:57:05.266Z,82.49
2023-05-09T20:59:36.855Z,80.27
2023-05-09T21:02:08.394Z,78.25
2023-05-09T21:04:39.906Z,81.51
2023-05-09T21:07:11.475Z,84.46
2023-05-09T21:09:42.991Z,83.66
2023-05-09T21:12:14.573Z,81.13
2023-05-09T21:14:46.064Z,80.28
2023-05-09T21:17:17.748Z,81.64
2023-05-09T21:19:49.922Z,80.89
2023-05-09T21:22:21.529Z,79.42
2023-05-09T21:24:53.198Z,80.02
2023-05-09T21:27:24.810Z,80.84
2023-05-09T21:29:56.352Z,81.85
2023-05-09T21:32:27.873Z,81.51
2023-05-09T21:34:59.558Z,83.10
2023-05-09T21:37:31.083Z,82.09
2023-05-09T21:40:05.397Z,81.85
2023-05-09T21:42:37.394Z,80.78
2023-05-09T21:45:09.511Z,83.22
2023-05-09T21:47:41.240Z,83.58
2023-05-09T21:50:13.046Z,82.15
2023-05-09T21:52:44.657Z,80.43
2023-05-09T21:55:21.170Z,80.10
2023-05-09T21:57:52.923Z,80.50
2023-05-09T22:00:32.394Z,78.45
2023-05-09T22:03:04.819Z,78.04
2023-05-09T22:05:36.816Z,80.74
2023-05-09T22:08:08.607Z,79.15
2023-05-09T22:10:40.218Z,77.09
2023-05-09T22:13:12.003Z,75.70
2023-05-09T22:15:43.940Z,73.71
2023-05-09T22:18:15.842Z,72.90
2023-05-09T22:20:48.266Z,76.89
2023-05-09T22:23:20.093Z,76.35
2023-05-09T22:25:51.999Z,76.40
2023-05-09T22:28:24.026Z,81.11
2023-05-09T22:30:55.813Z,80.53
2023-05-09T22:33:27.754Z,81.11
2023-05-09T22:36:00.136Z,79.01
2023-05-09T22:38:32.042Z,80.08
2023-05-09T22:41:03.935Z,81.17
2023-05-09T22:43:39.189Z,81.08
2023-05-09T22:46:12.055Z,79.58
2023-05-09T22:48:43.960Z,80.44
2023-05-09T22:51:15.914Z,80.44
2023-05-09T22:53:48.266Z,81.63
2023-05-09T22:56:20.184Z,81.38
2023-05-09T22:58:52.288Z,80.97
2023-05-09T23:01:24.301Z,79.52
2023-05-09T23:03:56.196Z,79.75
2023-05-09T23:06:28.391Z,79.68
2023-05-09T23:09:01.647Z,80.24
2023-05-09T23:11:33.244Z,82.60
2023-05-09T23:14:04.822Z,83.50
2023-05-09T23:16:36.458Z,81.95
2023-05-09T23:19:08.032Z,82.63
2023-05-09T23:21:39.742Z,81.11
2023-05-09T23:24:11.369Z,80.73
2023-05-09T23:26:43.085Z,81.69
2023-05-09T23:29:14.733Z,79.88
2023-05-09T23:32:04.928Z,81.15
2023-05-09T23:34:36.623Z,80.12
2023-05-09T23:37:08.289Z,79.29
2023-05-09T23:39:39.846Z,79.53
2023-05-09T23:42:11.429Z,78.57
2023-05-09T23:44:43.093Z,78.56
2023-05-09T23:47:14.676Z,76.51
2023-05-09T23:49:46.298Z,75.37
2023-05-09T23:52:17.917Z,75.65
2023-05-09T23:54:49.627Z,73.98
2023-05-09T23:57:21.264Z,72.81
2023-05-09T23:59:52.883Z,76.37
